Terminal Aerodrome Forecast
Issued by NWS

Home | Current Version | Previous Version | Text Only | Print | Product List | Glossary On
Versions: 1 2 3 4 5 6 7 8 9 10 11 12 13 14 15 16 17 18 19
747
FTUS44 KMAF 230527
TAFHOB
TAF
KHOB 230527Z 2306/2406 16014G19KT P6SM SCT120 SCT250
     FM231000 13015G21KT P6SM OVC013
     FM231800 14017G27KT P6SM SCT050 BKN250 PROB30 2318/2324
      VRB25G35KT 6SM TSRA BKN040CB=

USA.gov is the U.S. government's official web portal to all federal, state and local government web resources and services.